CHC2 weather

CLOSED Stewart (Health Centre) Heliport
Stewart, British Columbia, Canada

Public forecast

Using degrees Celsius for public forecast. Weather courtesy of forecast.io.

METAR (pilot weather report)

Closest report is Stewart Airport, 0.4 nm (0.8 km) SE. Retrieved 2019/07/21 20:00 UTC (39 minutes ago):

CZST 212000Z VRB02KT 15SM BKN170 18/13 A3000 RMK AC6 SLP161 DENSITY ALT 400FT

TAF (pilot weather forecast)

Closest forecast is Ketchikan International Airport, 68.1 nm (126.1 km) WSW. Retrieved 2019/07/21 18:36 UTC (2 hours ago):

TAF PAKT 211733Z 2118/2218 33012KT P6SM FEW030 BKN180 FM220300 14006KT P6SM BKN110 FM221300 34007KT P6SM BKN090 AMD LTD TO CLD VIS AND WIND 2206/2215